Time;durP1;ratioP1;P1;durP2;ratioP2;P2;SDS_P1;SDS_P2;PMS_P1;PMS_P2;Temp;Humidity;BMP_temperature;BMP_pressure;BME280_temperature;BME280_humidity;BME280_pressure;Samples;Min_cycle;Max_cycle;Signal;HPM_P1;HPM_P2
2023/08/22 00:00:00;;;;;;;11.32;6.55;;;16.50;99.90;;;;;;5074523;28;20476;-67
2023/08/22 00:02:27;;;;;;;9.32;6.50;;;16.50;99.90;;;;;;5092111;28;20032;-67
2023/08/22 00:04:53;;;;;;;11.23;7.30;;;16.60;99.90;;;;;;5073020;28;20036;-67
2023/08/22 00:07:19;;;;;;;12.73;8.00;;;16.60;99.90;;;;;;5091808;28;20115;-67
2023/08/22 00:09:44;;;;;;;15.35;7.88;;;16.60;99.90;;;;;;5091962;28;20119;-67
2023/08/22 00:12:10;;;;;;;8.77;6.75;;;16.70;99.90;;;;;;5091382;28;20044;-67
2023/08/22 00:14:36;;;;;;;14.88;7.30;;;16.60;99.90;;;;;;5073568;28;20036;-67
2023/08/22 00:17:02;;;;;;;15.07;6.65;;;16.60;99.90;;;;;;5092205;28;20481;-67
2023/08/22 00:19:28;;;;;;;13.27;6.63;;;16.60;99.90;;;;;;5090684;28;20047;-67
2023/08/22 00:21:53;;;;;;;12.80;7.63;;;16.60;99.90;;;;;;5073937;28;20036;-67
2023/08/22 00:24:19;;;;;;;14.43;7.90;;;16.60;99.90;;;;;;5073170;28;20047;-67
2023/08/22 00:26:45;;;;;;;15.60;7.03;;;16.60;99.90;;;;;;5091695;28;20385;-67
2023/08/22 00:29:10;;;;;;;10.48;6.65;;;16.60;99.90;;;;;;5073683;28;20194;-67
2023/08/22 00:31:36;;;;;;;11.52;7.07;;;16.60;99.90;;;;;;5056058;28;20044;-67
2023/08/22 00:34:02;;;;;;;13.07;7.60;;;16.60;99.90;;;;;;5073740;28;20472;-67
2023/08/22 00:36:29;;;;;;;13.27;7.28;;;16.50;99.90;;;;;;5091541;28;20040;-67
2023/08/22 00:38:55;;;;;;;10.70;6.43;;;16.50;99.90;;;;;;5073332;28;20085;-67
2023/08/22 00:41:20;;;;;;;14.60;7.53;;;16.50;99.90;;;;;;5073717;28;20504;-67
2023/08/22 00:43:47;;;;;;;10.70;6.80;;;16.50;99.90;;;;;;5072973;28;20388;-67
2023/08/22 00:46:13;;;;;;;11.52;6.25;;;16.50;99.90;;;;;;5072633;28;20113;-67
2023/08/22 00:48:39;;;;;;;11.60;6.38;;;16.50;99.90;;;;;;5073569;28;20079;-67
2023/08/22 00:51:06;;;;;;;14.52;7.07;;;16.50;99.90;;;;;;5073577;28;20464;-67
2023/08/22 00:53:33;;;;;;;12.85;6.85;;;16.50;99.90;;;;;;5090695;28;20051;-67
2023/08/22 00:55:59;;;;;;;11.90;7.03;;;16.50;99.90;;;;;;5091871;28;20043;-67
2023/08/22 00:58:25;;;;;;;13.18;8.32;;;16.50;99.90;;;;;;5073463;28;20051;-67
2023/08/22 01:00:51;;;;;;;14.13;7.28;;;16.50;99.90;;;;;;5074555;28;20394;-67
2023/08/22 01:03:17;;;;;;;17.45;7.63;;;16.50;99.90;;;;;;5060235;28;20073;-67
2023/08/22 01:05:50;;;;;;;12.10;7.25;;;16.60;99.90;;;;;;5094351;28;20036;-67
2023/08/22 01:08:21;;;;;;;12.63;7.40;;;16.60;99.90;;;;;;5076172;28;20040;-67
2023/08/22 01:10:52;;;;;;;10.65;7.50;;;16.60;99.90;;;;;;5077088;28;20076;-67
2023/08/22 01:13:22;;;;;;;13.90;6.88;;;16.60;99.90;;;;;;5077026;28;20097;-67
2023/08/22 01:15:50;;;;;;;13.75;6.60;;;16.60;99.90;;;;;;5094157;28;20455;-67
2023/08/22 01:18:18;;;;;;;12.70;6.97;;;16.60;99.90;;;;;;5076599;28;20462;-67
2023/08/22 01:20:44;;;;;;;9.73;7.07;;;16.60;99.90;;;;;;5059401;28;20048;-67
2023/08/22 01:23:10;;;;;;;12.38;7.70;;;16.60;99.90;;;;;;5076373;28;20036;-67
2023/08/22 01:25:36;;;;;;;9.98;6.53;;;16.60;99.90;;;;;;5076389;28;20052;-67
2023/08/22 01:28:18;;;;;;;11.18;6.82;;;16.60;99.90;;;;;;5076362;28;20071;-67
2023/08/22 01:30:50;;;;;;;13.05;6.72;;;16.70;99.90;;;;;;5076314;28;20036;-67
2023/08/22 01:33:57;;;;;;;8.98;6.30;;;16.60;99.90;;;;;;5076233;28;20047;-67
2023/08/22 01:36:25;;;;;;;11.43;6.90;;;16.60;99.90;;;;;;5032298;28;20052;-67
2023/08/22 01:38:52;;;;;;;10.52;6.50;;;16.60;99.90;;;;;;5076761;28;20043;-67
2023/08/22 01:41:19;;;;;;;10.82;6.40;;;16.60;99.90;;;;;;5076478;28;20055;-67
2023/08/22 01:43:45;;;;;;;11.23;6.95;;;16.60;99.90;;;;;;5092915;28;20036;-67
2023/08/22 01:46:10;;;;;;;12.88;7.50;;;16.50;99.90;;;;;;5094209;28;20040;-67
2023/08/22 01:48:36;;;;;;;10.80;7.50;;;16.60;99.90;;;;;;5094346;28;20424;-67
2023/08/22 01:51:02;;;;;;;11.20;7.82;;;16.60;99.90;;;;;;5093269;28;20492;-67
2023/08/22 01:53:28;;;;;;;13.35;8.13;;;16.60;99.90;;;;;;5075385;28;20047;-67
2023/08/22 01:56:01;;;;;;;15.23;9.35;;;16.50;99.90;;;;;;5075180;28;20039;-67
2023/08/22 01:58:27;;;;;;;11.35;7.38;;;16.50;99.90;;;;;;5075438;28;20075;-67
2023/08/22 02:00:53;;;;;;;14.98;7.35;;;16.50;99.90;;;;;;5075807;28;20401;-67
2023/08/22 02:03:20;;;;;;;12.88;8.00;;;16.50;99.90;;;;;;5092955;28;20036;-67
2023/08/22 02:05:46;;;;;;;12.35;6.82;;;16.50;99.90;;;;;;5075948;28;20051;-67
2023/08/22 02:08:12;;;;;;;11.77;7.53;;;16.50;99.90;;;;;;5093929;28;20524;-67
2023/08/22 02:10:37;;;;;;;10.70;7.00;;;16.50;99.90;;;;;;5075366;28;20047;-67
2023/08/22 02:13:03;;;;;;;13.35;7.78;;;16.40;99.90;;;;;;5094033;28;20528;-67
2023/08/22 02:15:29;;;;;;;12.43;7.85;;;16.40;99.90;;;;;;5074759;28;20046;-67
2023/08/22 02:17:55;;;;;;;13.35;7.70;;;16.40;99.90;;;;;;5074935;28;20050;-67
2023/08/22 02:20:22;;;;;;;11.13;7.55;;;16.40;99.90;;;;;;5075641;28;20040;-67
2023/08/22 02:22:48;;;;;;;12.95;8.00;;;16.30;99.90;;;;;;5075470;28;20059;-67
2023/08/22 02:25:13;;;;;;;10.23;6.88;;;16.30;99.90;;;;;;5092909;28;20032;-67
2023/08/22 02:27:39;;;;;;;15.85;7.90;;;16.30;99.90;;;;;;5075822;28;20114;-67
2023/08/22 02:30:09;;;;;;;12.82;8.23;;;16.20;99.90;;;;;;5075886;28;20036;-67
2023/08/22 02:32:36;;;;;;;10.75;7.20;;;16.20;99.90;;;;;;5058241;28;20040;-68
2023/08/22 02:35:03;;;;;;;11.98;6.57;;;16.20;99.90;;;;;;5075045;28;20043;-67
2023/08/22 02:37:28;;;;;;;12.30;8.05;;;16.10;99.90;;;;;;5075244;28;20043;-67
2023/08/22 02:39:55;;;;;;;10.35;6.97;;;16.10;99.90;;;;;;5093216;28;20065;-67
2023/08/22 02:42:22;;;;;;;10.15;6.15;;;16.10;99.90;;;;;;5075358;28;20374;-67
2023/08/22 02:44:47;;;;;;;11.32;7.00;;;16.00;99.90;;;;;;5093031;28;20044;-67
2023/08/22 02:47:13;;;;;;;9.73;6.25;;;16.00;99.90;;;;;;5074142;28;20046;-67
2023/08/22 02:49:39;;;;;;;10.57;6.80;;;16.00;99.90;;;;;;5075394;28;20036;-67
2023/08/22 02:52:05;;;;;;;10.38;6.82;;;16.00;99.90;;;;;;5057830;28;20048;-67
2023/08/22 02:54:30;;;;;;;11.57;6.85;;;15.90;99.90;;;;;;5075065;28;20051;-67
2023/08/22 02:56:56;;;;;;;10.73;6.72;;;16.00;99.90;;;;;;5075245;28;20550;-67
2023/08/22 02:59:22;;;;;;;11.77;6.82;;;16.00;99.90;;;;;;5073982;28;20123;-67
2023/08/22 03:01:48;;;;;;;11.23;7.20;;;16.00;99.90;;;;;;5093004;28;20044;-67
2023/08/22 03:04:13;;;;;;;10.32;6.68;;;16.00;99.90;;;;;;5074418;28;20032;-67
2023/08/22 03:06:39;;;;;;;9.35;6.15;;;16.00;99.90;;;;;;5073461;28;20028;-67
2023/08/22 03:09:05;;;;;;;10.63;6.30;;;16.00;99.90;;;;;;5058013;28;20121;-67
2023/08/22 03:11:30;;;;;;;13.02;6.97;;;16.00;99.90;;;;;;5074442;28;20043;-67
2023/08/22 03:13:56;;;;;;;7.57;5.25;;;16.10;99.90;;;;;;5091997;28;20040;-67
2023/08/22 03:16:22;;;;;;;11.07;7.07;;;16.00;99.90;;;;;;5074411;28;20067;-67
2023/08/22 03:18:48;;;;;;;9.68;6.25;;;16.10;99.90;;;;;;5057917;28;20062;-67
2023/08/22 03:21:14;;;;;;;8.32;5.75;;;16.10;99.90;;;;;;5063430;28;20037;-67
2023/08/22 03:23:40;;;;;;;10.13;5.50;;;16.00;99.90;;;;;;5071058;28;20094;-67
2023/08/22 03:26:10;;;;;;;8.77;5.57;;;16.00;99.90;;;;;;5074863;28;20477;-67
2023/08/22 03:28:36;;;;;;;10.75;5.70;;;16.00;99.90;;;;;;5073757;28;20039;-67
2023/08/22 03:31:02;;;;;;;8.63;5.70;;;15.90;99.90;;;;;;5073219;28;20039;-67
2023/08/22 03:33:29;;;;;;;10.95;5.97;;;15.90;99.90;;;;;;5054108;28;20477;-67
2023/08/22 03:35:56;;;;;;;9.63;5.10;;;15.90;99.90;;;;;;5080550;28;20116;-67
2023/08/22 03:38:23;;;;;;;11.27;5.85;;;15.90;99.90;;;;;;5074217;28;20048;-67
2023/08/22 03:40:49;;;;;;;9.05;5.65;;;15.90;99.90;;;;;;5092501;28;20040;-67
2023/08/22 03:43:16;;;;;;;9.05;5.65;;;15.90;99.90;;;;;;5073283;28;20467;-67
2023/08/22 03:45:43;;;;;;;10.02;6.43;;;15.80;99.90;;;;;;5074142;28;20043;-67
2023/08/22 03:48:09;;;;;;;8.95;6.25;;;15.80;99.90;;;;;;5074692;28;20075;-67
2023/08/22 03:50:37;;;;;;;9.77;5.47;;;15.80;99.90;;;;;;5073064;28;20059;-67
2023/08/22 03:53:03;;;;;;;8.57;6.00;;;15.80;99.90;;;;;;5057595;28;20062;-67
2023/08/22 03:55:29;;;;;;;9.02;6.00;;;15.70;99.90;;;;;;5091140;28;20527;-67
2023/08/22 03:57:56;;;;;;;8.82;5.90;;;15.70;99.90;;;;;;5074416;28;20040;-67
2023/08/22 04:00:22;;;;;;;8.93;5.30;;;15.70;99.90;;;;;;5092137;28;20047;-67
2023/08/22 04:02:48;;;;;;;9.82;5.38;;;15.70;99.90;;;;;;5072879;28;20412;-67
2023/08/22 04:05:14;;;;;;;10.10;6.07;;;15.60;99.90;;;;;;5091748;28;20040;-67
2023/08/22 04:07:39;;;;;;;9.48;5.60;;;15.50;99.90;;;;;;5057322;28;20093;-67
2023/08/22 04:10:05;;;;;;;9.40;6.15;;;15.50;99.90;;;;;;5056729;28;20093;-67
2023/08/22 04:12:31;;;;;;;9.55;5.50;;;15.50;99.90;;;;;;5073490;28;20071;-67
2023/08/22 04:14:57;;;;;;;10.68;6.60;;;15.50;99.90;;;;;;5092264;28;20132;-67
2023/08/22 04:17:23;;;;;;;9.02;5.18;;;15.50;99.90;;;;;;5073263;28;20050;-67
2023/08/22 04:19:48;;;;;;;10.68;6.40;;;15.50;99.90;;;;;;5073819;28;20093;-67
2023/08/22 04:22:14;;;;;;;10.02;6.15;;;15.40;99.90;;;;;;5073585;28;20052;-67
2023/08/22 04:24:40;;;;;;;8.00;5.22;;;15.40;99.90;;;;;;5055900;28;20397;-67
2023/08/22 04:27:05;;;;;;;9.38;6.18;;;15.40;99.90;;;;;;5073643;28;20145;-67
2023/08/22 04:29:31;;;;;;;7.78;5.47;;;15.40;99.90;;;;;;5091845;28;20032;-67
2023/08/22 04:31:58;;;;;;;12.02;5.55;;;15.40;99.90;;;;;;5073207;28;20064;-67
2023/08/22 04:34:24;;;;;;;8.20;5.53;;;15.40;99.90;;;;;;5074667;28;20036;-67
2023/08/22 04:36:49;;;;;;;8.18;5.03;;;15.30;99.90;;;;;;5077385;28;20101;-67
2023/08/22 04:39:15;;;;;;;11.57;5.63;;;15.30;99.90;;;;;;5077010;28;20122;-67
2023/08/22 04:41:41;;;;;;;8.82;4.95;;;15.30;99.90;;;;;;5095340;28;20434;-67
2023/08/22 04:44:06;;;;;;;7.60;5.25;;;15.20;99.90;;;;;;5076847;28;20035;-67
2023/08/22 04:46:32;;;;;;;10.88;6.38;;;15.20;99.90;;;;;;5094469;28;20032;-67
2023/08/22 04:48:58;;;;;;;9.45;5.85;;;15.20;99.90;;;;;;5077146;28;20046;-67
2023/08/22 04:51:23;;;;;;;9.38;6.05;;;15.20;99.90;;;;;;5076257;28;20052;-67
2023/08/22 04:53:51;;;;;;;9.00;5.07;;;15.30;99.90;;;;;;5076571;28;20096;-67
2023/08/22 04:56:17;;;;;;;8.43;5.43;;;15.20;99.90;;;;;;5076856;28;20052;-67
2023/08/22 04:58:42;;;;;;;11.82;5.88;;;15.20;99.90;;;;;;5076423;28;20040;-67
2023/08/22 05:01:08;;;;;;;9.07;6.07;;;15.20;99.90;;;;;;5077041;28;20040;-67
2023/08/22 05:03:34;;;;;;;16.40;7.93;;;15.30;99.90;;;;;;5060440;28;20086;-67
2023/08/22 05:05:59;;;;;;;9.93;5.80;;;15.30;99.90;;;;;;5076707;28;20151;-67
2023/08/22 05:08:25;;;;;;;12.00;7.45;;;15.30;99.90;;;;;;5095163;28;20119;-67
2023/08/22 05:10:51;;;;;;;11.95;6.60;;;15.30;99.90;;;;;;5077234;28;20480;-67
2023/08/22 05:13:16;;;;;;;10.50;7.50;;;15.40;99.90;;;;;;5075077;28;20526;-67
2023/08/22 05:15:43;;;;;;;10.93;7.13;;;15.40;99.90;;;;;;5076657;28;20097;-69
2023/08/22 05:18:09;;;;;;;10.77;7.55;;;15.50;99.90;;;;;;5077343;28;20388;-69
2023/08/22 05:20:37;;;;;;;11.57;7.25;;;15.50;99.90;;;;;;5075954;28;20040;-69
2023/08/22 05:23:03;;;;;;;10.20;6.78;;;15.60;99.90;;;;;;5059770;28;20032;-69
2023/08/22 05:25:29;;;;;;;12.73;7.38;;;15.70;99.90;;;;;;5094528;28;20549;-69
2023/08/22 05:27:55;;;;;;;12.18;8.20;;;15.70;99.90;;;;;;5094418;28;20028;-69
2023/08/22 05:30:21;;;;;;;13.73;7.25;;;15.80;99.90;;;;;;5076765;28;20098;-69
2023/08/22 05:32:47;;;;;;;10.50;7.70;;;15.80;99.90;;;;;;5094188;28;20476;-69
2023/08/22 05:35:12;;;;;;;13.52;8.63;;;15.90;99.90;;;;;;5094109;28;20040;-67
2023/08/22 05:37:38;;;;;;;10.40;8.27;;;16.00;99.90;;;;;;5076313;28;20067;-67
2023/08/22 05:40:06;;;;;;;13.80;7.55;;;16.10;99.90;;;;;;5076957;28;20043;-67
2023/08/22 05:42:32;;;;;;;19.40;8.30;;;16.10;99.90;;;;;;5075123;28;20089;-67
2023/08/22 05:44:58;;;;;;;12.30;7.90;;;16.10;99.90;;;;;;5076229;28;20093;-67
2023/08/22 05:47:24;;;;;;;13.18;8.70;;;16.30;99.90;;;;;;5075691;28;20048;-67
2023/08/22 05:49:49;;;;;;;12.45;7.90;;;16.30;99.90;;;;;;5093733;28;20048;-67
2023/08/22 05:52:15;;;;;;;12.00;8.13;;;16.40;99.90;;;;;;5058985;28;20067;-67
2023/08/22 05:54:41;;;;;;;11.25;8.10;;;16.50;99.90;;;;;;5075524;28;20051;-67
2023/08/22 05:57:07;;;;;;;12.48;8.27;;;16.50;99.90;;;;;;5093108;28;20047;-66
2023/08/22 05:59:33;;;;;;;12.13;7.95;;;16.50;99.90;;;;;;5094171;28;20400;-67
2023/08/22 06:01:58;;;;;;;11.43;8.65;;;16.60;99.90;;;;;;5075210;28;20429;-67
2023/08/22 06:04:25;;;;;;;10.98;8.80;;;16.60;99.90;;;;;;5094003;28;20116;-67
2023/08/22 06:06:51;;;;;;;11.80;7.65;;;16.70;99.90;;;;;;5093603;28;20040;-67
2023/08/22 06:09:16;;;;;;;12.90;8.55;;;16.80;99.90;;;;;;5074421;28;20036;-67
2023/08/22 06:11:42;;;;;;;14.10;8.20;;;16.90;99.90;;;;;;5075828;28;20445;-67
2023/08/22 06:14:08;;;;;;;11.45;8.23;;;16.90;99.90;;;;;;5093592;28;20105;-67
2023/08/22 06:16:34;;;;;;;12.07;8.38;;;17.00;99.90;;;;;;5075263;28;20032;-67
2023/08/22 06:19:02;;;;;;;12.75;7.53;;;17.10;99.90;;;;;;5076121;28;20101;-67
2023/08/22 06:21:28;;;;;;;14.77;8.93;;;17.10;99.90;;;;;;5059391;28;20066;-67
2023/08/22 06:23:54;;;;;;;13.38;8.40;;;17.20;99.90;;;;;;5074926;28;20481;-67
2023/08/22 06:26:20;;;;;;;13.75;8.35;;;17.20;99.90;;;;;;5076091;28;20128;-67
2023/08/22 06:28:46;;;;;;;11.65;8.18;;;17.20;99.90;;;;;;5059019;28;20497;-67
2023/08/22 06:31:12;;;;;;;10.93;6.85;;;17.30;99.90;;;;;;5092229;28;20462;-67
2023/08/22 06:33:37;;;;;;;11.60;7.47;;;17.40;99.90;;;;;;5093656;28;20040;-67
2023/08/22 06:36:03;;;;;;;11.15;7.35;;;17.40;99.90;;;;;;5075769;28;20044;-67
2023/08/22 06:38:29;;;;;;;11.57;7.63;;;17.50;99.90;;;;;;5092340;28;20040;-67
2023/08/22 06:40:55;;;;;;;9.68;6.82;;;17.60;99.90;;;;;;5093036;28;20043;-67
2023/08/22 06:43:22;;;;;;;11.20;7.30;;;17.80;99.90;;;;;;5092936;28;20441;-67
2023/08/22 06:45:48;;;;;;;12.82;8.23;;;17.90;99.90;;;;;;5092727;28;20044;-67
2023/08/22 06:48:13;;;;;;;11.38;7.47;;;18.00;99.90;;;;;;5075230;28;20392;-67
2023/08/22 06:50:39;;;;;;;11.57;7.88;;;18.10;99.90;;;;;;5071238;28;20063;-67
2023/08/22 06:53:05;;;;;;;12.65;6.72;;;18.10;99.90;;;;;;5070882;28;20041;-66
2023/08/22 06:55:30;;;;;;;10.70;6.53;;;18.20;99.90;;;;;;5055300;28;20470;-67
2023/08/22 06:57:56;;;;;;;12.20;6.82;;;18.20;99.90;;;;;;5071899;28;20076;-67
2023/08/22 07:00:22;;;;;;;11.40;6.55;;;18.20;99.90;;;;;;5070721;28;20044;-67
2023/08/22 07:02:48;;;;;;;12.93;6.93;;;18.20;99.90;;;;;;5071359;28;20541;-67
2023/08/22 07:05:15;;;;;;;10.52;6.22;;;18.30;99.90;;;;;;5072323;28;20044;-67
2023/08/22 07:07:41;;;;;;;11.50;5.85;;;18.30;99.90;;;;;;5071513;28;20036;-67
2023/08/22 07:10:08;;;;;;;8.77;5.82;;;18.30;99.90;;;;;;5070880;28;20028;-67
2023/08/22 07:12:35;;;;;;;11.80;5.93;;;18.40;99.90;;;;;;5070377;28;20032;-67
2023/08/22 07:15:00;;;;;;;9.25;4.93;;;18.50;99.90;;;;;;5071173;28;20044;-67
2023/08/22 07:17:26;;;;;;;8.18;5.50;;;18.60;99.90;;;;;;5071193;28;20469;-68
2023/08/22 07:19:52;;;;;;;8.48;4.95;;;18.70;99.90;;;;;;5070023;28;20044;-67
2023/08/22 07:22:18;;;;;;;9.55;5.00;;;18.80;99.90;;;;;;5070668;28;20044;-67
2023/08/22 07:24:43;;;;;;;8.10;4.55;;;18.90;99.90;;;;;;5070823;28;20043;-66
2023/08/22 07:27:12;;;;;;;10.10;4.72;;;19.00;99.90;;;;;;5069182;28;20036;-66
2023/08/22 07:29:38;;;;;;;7.97;4.15;;;19.20;99.90;;;;;;5070736;28;20032;-66
2023/08/22 07:32:04;;;;;;;9.00;5.10;;;19.30;99.90;;;;;;5066148;28;20505;-66
2023/08/22 07:34:31;;;;;;;8.07;4.40;;;19.30;99.90;;;;;;5047314;28;20033;-66
2023/08/22 07:36:57;;;;;;;9.40;4.45;;;19.40;99.90;;;;;;5048880;28;20382;-67
2023/08/22 07:39:23;;;;;;;10.45;5.28;;;19.40;99.90;;;;;;5048926;28;20056;-66
2023/08/22 07:41:49;;;;;;;9.05;5.82;;;19.30;99.90;;;;;;5050035;28;20057;-66
2023/08/22 07:44:14;;;;;;;9.90;5.18;;;19.30;99.90;;;;;;5068138;28;20041;-66
2023/08/22 07:46:40;;;;;;;8.07;4.82;;;19.30;99.90;;;;;;5069842;28;20032;-67
2023/08/22 07:49:07;;;;;;;9.07;4.72;;;19.40;99.90;;;;;;5068745;28;20040;-67
2023/08/22 07:51:34;;;;;;;12.38;5.47;;;19.30;99.90;;;;;;5081791;28;20060;-66
2023/08/22 07:54:01;;;;;;;9.27;5.30;;;19.30;99.90;;;;;;5071658;28;20046;-67
2023/08/22 07:56:27;;;;;;;7.53;4.75;;;19.40;99.90;;;;;;5069945;28;20044;-65
2023/08/22 07:58:53;;;;;;;11.95;5.80;;;19.60;99.90;;;;;;5089982;28;20040;-67
2023/08/22 08:01:18;;;;;;;9.77;5.78;;;19.70;99.90;;;;;;5071718;28;20476;-67
2023/08/22 08:03:44;;;;;;;11.30;6.18;;;19.80;99.90;;;;;;5088999;28;20424;-67
2023/08/22 08:06:10;;;;;;;8.88;5.75;;;19.90;99.90;;;;;;5071628;28;20123;-67
2023/08/22 08:08:35;;;;;;;9.25;5.30;;;20.00;99.90;;;;;;5071178;28;20097;-68
2023/08/22 08:11:01;;;;;;;10.25;5.45;;;20.10;99.90;;;;;;5096510;28;20040;-68
2023/08/22 08:13:27;;;;;;;10.15;5.35;;;20.10;99.90;;;;;;5078341;28;20051;-65
2023/08/22 08:15:53;;;;;;;9.43;5.18;;;20.10;99.90;;;;;;5078429;28;20036;-66
2023/08/22 08:18:19;;;;;;;9.70;5.90;;;20.10;99.90;;;;;;5061074;28;20048;-66
2023/08/22 08:20:44;;;;;;;9.30;6.40;;;20.10;99.90;;;;;;5059379;28;20412;-67
2023/08/22 08:23:10;;;;;;;10.43;5.45;;;20.00;99.90;;;;;;5076197;28;20101;-67
2023/08/22 08:25:36;;;;;;;10.55;6.78;;;20.00;99.90;;;;;;5077087;28;20046;-67
2023/08/22 08:28:04;;;;;;;11.30;6.60;;;19.90;99.90;;;;;;5093296;28;20776;-67
2023/08/22 08:30:31;;;;;;;12.88;6.63;;;19.80;99.90;;;;;;5076067;28;20044;-67
2023/08/22 08:32:56;;;;;;;10.88;6.20;;;19.80;99.90;;;;;;5093509;28;20078;-67
2023/08/22 08:35:22;;;;;;;8.32;5.95;;;19.80;99.90;;;;;;5076218;28;20059;-67
2023/08/22 08:37:48;;;;;;;12.70;6.47;;;19.90;99.90;;;;;;5094269;28;20043;-67
2023/08/22 08:40:14;;;;;;;10.48;5.97;;;19.90;99.90;;;;;;5076319;28;20036;-69
2023/08/22 08:42:41;;;;;;;7.25;4.72;;;19.90;99.90;;;;;;5076516;28;20112;-69
2023/08/22 08:45:08;;;;;;;13.07;6.95;;;19.90;99.90;;;;;;5075716;28;20485;-69
2023/08/22 08:47:34;;;;;;;10.50;6.55;;;19.90;99.90;;;;;;5094709;28;20085;-68
2023/08/22 08:50:06;;;;;;;17.15;7.18;;;19.90;99.90;;;;;;5076150;28;20063;-68
2023/08/22 08:52:32;;;;;;;13.65;7.60;;;19.90;99.90;;;;;;5075523;28;20105;-68
2023/08/22 08:54:59;;;;;;;13.30;7.03;;;19.90;99.90;;;;;;5059470;28;20032;-69
2023/08/22 08:57:29;;;;;;;11.27;6.85;;;19.90;99.90;;;;;;5076473;28;20588;-69
2023/08/22 08:59:55;;;;;;;13.38;6.65;;;20.00;99.90;;;;;;5094426;28;20044;-69
2023/08/22 09:02:20;;;;;;;9.55;5.78;;;20.10;99.90;;;;;;5058336;28;20066;-69
2023/08/22 09:04:46;;;;;;;8.98;5.97;;;20.20;99.90;;;;;;5058185;28;20413;-69
2023/08/22 09:07:13;;;;;;;12.30;6.40;;;20.40;99.90;;;;;;5069458;28;20374;-69
2023/08/22 09:09:39;;;;;;;11.18;7.20;;;20.70;99.90;;;;;;5073993;28;20126;-69
2023/08/22 09:12:10;;;;;;;9.93;6.55;;;20.80;99.90;;;;;;5084532;28;20123;-69
2023/08/22 09:14:46;;;;;;;12.48;6.78;;;21.00;99.90;;;;;;5073476;28;20605;-69
2023/08/22 09:17:16;;;;;;;13.07;6.68;;;21.10;99.90;;;;;;5060171;28;20044;-70
2023/08/22 09:19:42;;;;;;;9.60;6.25;;;21.20;99.90;;;;;;5093614;28;20401;-70
2023/08/22 09:22:13;;;;;;;18.85;8.45;;;21.30;99.90;;;;;;5052398;28;20059;-71
2023/08/22 09:24:39;;;;;;;12.27;7.38;;;21.50;99.90;;;;;;5050124;28;20048;-71
2023/08/22 09:27:05;;;;;;;10.63;7.53;;;21.60;99.90;;;;;;5072636;28;20043;-71
2023/08/22 09:29:34;;;;;;;14.63;8.35;;;21.70;99.90;;;;;;5054256;28;20094;-69
2023/08/22 09:32:05;;;;;;;13.50;7.88;;;21.60;99.90;;;;;;5072296;28;20040;-69
2023/08/22 09:34:32;;;;;;;14.02;8.02;;;21.50;99.90;;;;;;5052450;28;20048;-68
2023/08/22 09:36:57;;;;;;;10.90;7.95;;;21.40;99.90;;;;;;5065244;28;20055;-70
2023/08/22 09:39:24;;;;;;;11.80;7.97;;;21.30;99.90;;;;;;5072369;28;20400;-69
2023/08/22 09:41:56;;;;;;;12.50;7.65;;;21.30;99.90;;;;;;5090320;28;20485;-69
2023/08/22 09:44:25;;;;;;;11.75;7.60;;;21.40;99.90;;;;;;5090059;28;20129;-69
2023/08/22 09:46:53;;;;;;;10.10;6.65;;;21.50;99.90;;;;;;5073700;28;20051;-69
2023/08/22 09:49:20;;;;;;;13.73;7.45;;;21.70;99.90;;;;;;5055915;28;20139;-68
2023/08/22 09:51:47;;;;;;;12.35;6.82;;;21.80;99.90;;;;;;5091530;28;20160;-68
2023/08/22 09:54:14;;;;;;;11.43;7.20;;;21.90;99.90;;;;;;5072414;28;20162;-69
2023/08/22 09:56:41;;;;;;;9.73;6.35;;;22.00;99.90;;;;;;5049675;28;20405;-71
2023/08/22 09:59:07;;;;;;;11.75;6.45;;;22.00;99.90;;;;;;5056047;28;20551;-71
2023/08/22 10:01:37;;;;;;;10.50;6.15;;;22.10;99.90;;;;;;5090376;28;20040;-71
2023/08/22 10:04:04;;;;;;;16.23;8.15;;;22.20;99.90;;;;;;5059879;28;20048;-68
2023/08/22 10:06:31;;;;;;;14.77;6.47;;;22.20;99.90;;;;;;5065946;28;20044;-69
2023/08/22 10:08:57;;;;;;;14.40;8.20;;;22.40;99.90;;;;;;5085678;28;20101;-68
2023/08/22 10:11:27;;;;;;;10.50;6.53;;;22.50;99.90;;;;;;5074399;28;20052;-67
2023/08/22 10:13:53;;;;;;;9.52;6.35;;;22.60;99.90;;;;;;5075038;28;20477;-70
2023/08/22 10:16:20;;;;;;;9.25;6.03;;;22.80;99.90;;;;;;5074990;28;20059;-70
2023/08/22 10:18:45;;;;;;;10.57;6.10;;;22.90;99.90;;;;;;5083125;28;20108;-70
2023/08/22 10:21:11;;;;;;;10.50;6.28;;;22.90;99.90;;;;;;5068146;28;20040;-67
2023/08/22 10:23:52;;;;;;;13.55;6.30;;;23.00;99.90;;;;;;5065957;28;20109;-69
2023/08/22 10:26:22;;;;;;;10.30;5.60;;;23.00;99.90;;;;;;5083152;28;20044;-67
2023/08/22 10:29:12;;;;;;;12.48;5.60;;;23.00;99.90;;;;;;5053993;28;20039;-69
2023/08/22 10:32:17;;;;;;;10.15;5.18;;;22.90;99.90;;;;;;5072501;28;20043;-66
2023/08/22 10:34:43;;;;;;;9.88;5.28;;;22.80;99.90;;;;;;5001273;28;20507;-69
2023/08/22 10:37:11;;;;;;;9.30;4.32;;;22.70;99.90;;;;;;5000368;28;20034;-69
2023/08/22 10:39:48;;;;;;;10.40;4.30;;;22.60;99.90;;;;;;5031268;28;20055;-69
2023/08/22 10:42:17;;;;;;;10.73;5.28;;;22.60;99.90;;;;;;5078906;28;20045;-67
2023/08/22 10:44:48;;;;;;;12.00;5.43;;;22.60;99.90;;;;;;5041632;28;20088;-67
2023/08/22 10:47:17;;;;;;;9.48;4.32;;;22.70;99.90;;;;;;5053699;28;20190;-67
2023/08/22 10:49:48;;;;;;;8.35;4.35;;;22.80;99.90;;;;;;5071615;28;20051;-68
2023/08/22 10:52:14;;;;;;;10.05;5.35;;;22.90;99.90;;;;;;5088321;28;20048;-66
2023/08/22 10:54:59;;;;;;;9.25;5.93;;;23.10;99.90;;;;;;5072418;28;20052;-66
2023/08/22 10:57:27;;;;;;;10.57;4.45;;;23.30;99.90;;;;;;5089391;28;20048;-66
2023/08/22 10:59:55;;;;;;;9.20;4.80;;;23.20;99.90;;;;;;5052924;28;20542;-67
2023/08/22 11:02:23;;;;;;;10.40;4.88;;;23.10;99.90;;;;;;5077993;28;20115;-69
2023/08/22 11:04:50;;;;;;;9.85;5.50;;;22.90;99.90;;;;;;5059192;28;20039;-68
2023/08/22 11:07:16;;;;;;;7.20;4.28;;;22.90;99.90;;;;;;5081412;28;20067;-65
2023/08/22 11:09:42;;;;;;;8.90;5.47;;;23.00;99.90;;;;;;5074738;28;20115;-67
2023/08/22 11:12:21;;;;;;;11.23;5.93;;;23.10;99.90;;;;;;5091952;28;20501;-73
2023/08/22 11:14:48;;;;;;;10.65;5.45;;;23.20;99.90;;;;;;5092421;28;20043;-70
2023/08/22 11:17:18;;;;;;;8.05;4.57;;;23.30;99.90;;;;;;5074676;28;20043;-69
2023/08/22 11:19:44;;;;;;;6.68;3.35;;;23.40;99.90;;;;;;5090720;28;20047;-69
2023/08/22 11:22:10;;;;;;;8.88;4.13;;;23.50;99.90;;;;;;5092895;28;20043;-65
2023/08/22 11:24:37;;;;;;;11.05;4.65;;;23.50;99.90;;;;;;5074120;28;20044;-70
2023/08/22 11:27:03;;;;;;;9.50;4.50;;;23.60;99.90;;;;;;5074002;28;20047;-70
2023/08/22 11:29:38;;;;;;;9.00;4.65;;;23.70;99.90;;;;;;5092372;28;20047;-69
2023/08/22 11:32:04;;;;;;;8.23;4.80;;;23.70;99.90;;;;;;5074879;28;20044;-71
2023/08/22 11:34:29;;;;;;;6.82;5.00;;;23.60;99.90;;;;;;5073462;28;20133;-71
2023/08/22 11:36:55;;;;;;;8.90;4.95;;;23.50;99.90;;;;;;5092612;28;20040;-68
2023/08/22 11:39:21;;;;;;;9.15;5.20;;;23.40;99.90;;;;;;5092533;28;20093;-69
2023/08/22 11:41:46;;;;;;;13.52;6.45;;;23.30;99.90;;;;;;5073501;28;20473;-67
2023/08/22 11:44:13;;;;;;;9.93;4.80;;;23.20;99.90;;;;;;5073722;28;20042;-63
2023/08/22 11:46:40;;;;;;;9.10;4.45;;;23.20;99.90;;;;;;5073626;28;20047;-70
2023/08/22 11:49:07;;;;;;;9.88;4.53;;;23.10;99.90;;;;;;5074347;28;20048;-67
2023/08/22 11:51:33;;;;;;;8.68;4.93;;;23.10;99.90;;;;;;5073887;28;20048;-69
2023/08/22 11:53:58;;;;;;;8.27;4.72;;;23.10;99.90;;;;;;5073595;28;20130;-71
2023/08/22 11:56:24;;;;;;;5.70;3.58;;;23.00;99.90;;;;;;5074311;28;20036;-72
2023/08/22 11:58:51;;;;;;;6.68;3.70;;;23.10;99.90;;;;;;5092304;28;20047;-67
2023/08/22 12:01:19;;;;;;;6.93;3.85;;;23.20;99.90;;;;;;5073714;28;20057;-70
2023/08/22 12:03:45;;;;;;;9.65;4.13;;;23.10;99.90;;;;;;5073952;28;20123;-69
2023/08/22 12:06:12;;;;;;;9.18;5.07;;;23.00;99.90;;;;;;5074074;28;20127;-71
2023/08/22 12:08:38;;;;;;;10.15;5.22;;;23.00;99.90;;;;;;5073165;28;20119;-69
2023/08/22 12:11:04;;;;;;;12.35;5.22;;;22.90;99.90;;;;;;5074248;28;20081;-69
2023/08/22 12:13:29;;;;;;;10.13;5.38;;;22.90;99.90;;;;;;5091747;28;20413;-68
2023/08/22 12:15:55;;;;;;;9.00;5.20;;;22.90;99.90;;;;;;5091494;28;20043;-70
2023/08/22 12:18:29;;;;;;;11.05;5.60;;;22.90;99.90;;;;;;5074042;28;20118;-69
2023/08/22 12:20:55;;;;;;;12.70;6.22;;;22.80;99.90;;;;;;5092285;28;20048;-70
2023/08/22 12:23:21;;;;;;;10.15;5.70;;;22.90;99.90;;;;;;5091175;28;20405;-69
2023/08/22 12:25:46;;;;;;;11.20;6.05;;;23.00;99.90;;;;;;5074019;28;20465;-71
2023/08/22 12:28:14;;;;;;;9.82;5.97;;;23.30;99.90;;;;;;5074100;28;20500;-69
2023/08/22 12:30:40;;;;;;;9.55;5.28;;;23.50;99.90;;;;;;5073132;28;20040;-70
2023/08/22 12:33:07;;;;;;;8.95;5.80;;;23.70;99.90;;;;;;5073676;28;20054;-69
2023/08/22 12:35:34;;;;;;;13.30;5.32;;;23.80;99.90;;;;;;5092095;28;20373;-69
2023/08/22 12:38:00;;;;;;;10.20;5.25;;;23.90;99.90;;;;;;5091461;28;20090;-65